Details From KNEW - Lakefront
To MMPR - Licenciado Gustavo Diaz Ordaz Intl
Flight Number -
Tags Generated
Created
Modified
Stats Distance 998 nm / 1,849 km
Max Altitude 0 ft / 0 m
Waypoints 3
Social Downloads 1
Likes 0
Share VATSIM

Download

Looking for another format? Having issues loading an existing format? Contact us
Advertisement - Login to hide

Notes

Generated

Route

KNEW SBILH MMPR

ID Type Via Altitude Latitude Longitude Leg Dist Tot Dist Heading (true) Name
O KNEW APT - 0 ft / 0 m 30.03705˚ -90.03062˚ - 0 nm - Lakefront
SBILH FIX - 0 ft / 0 m 27.66667˚ -94.33333˚ 267 nm 267 nm 239° / 237° -
O MMPR APT - 0 ft / 0 m 20.67053˚ -105.26511˚ 731 nm 998 nm 237° / 233° -

Altitude Profile

Advertisement - Login to hide

Weather


0- 5 10 15 20 25 30 35+ Temperature / ° C

Clouds and Precipitation
Forecast for 2017-12-11 06:00 UTC. Updated 2 hours ago

Ground ~20,000 ft ~40,000 ft Winds

KNEW

Details ICAO KNEW
Name Lakefront
Region United States
Timezone America/Chicago (UTC-6.0)
Stats Elevation 7 ft / 2 m (AMSL)
Location 30.041857° -90.027690°
Runways 3
Magnetic Variation 0.886° W

METAR

KNEW 110153Z 17005KT 9SM CLR 09/03 A3035 RMK AO2 SLP271 T00890033

Decode

TAF

TAF KNEW 102320Z 1100/1124 28006KT P6SM SKC FM112100 25009KT P6SM SKC

Decode

Departure Runways

ID Width Length Bearing (true) Bearing (mag) Surface Threshold Offset Overrun Length
09 75 ft / 23 m 3,108 ft / 947 m 89.20° 90.09° Asphalt 0 ft / 0 m 59 ft / 18 m
18L 75 ft / 23 m 3,710 ft / 1,131 m 179.26° 180.15° Asphalt 0 ft / 0 m 0 ft / 0 m
18R 150 ft / 46 m 6,904 ft / 2,104 m 179.27° 180.16° Asphalt 240 ft / 73 m 0 ft / 0 m
27 75 ft / 23 m 3,108 ft / 947 m 269.20° 270.09° Asphalt 0 ft / 0 m 49 ft / 15 m
36L 150 ft / 46 m 6,904 ft / 2,104 m 359.27° 0.16° Asphalt 820 ft / 250 m 0 ft / 0 m
36R 75 ft / 23 m 3,710 ft / 1,131 m 359.26° 0.15° Asphalt 0 ft / 0 m 0 ft / 0 m

MMPR

Details ICAO MMPR (PVR)
Name LICENCIADO GUSTAVO DIAZ ORDAZ INTL
Region Mexico
Timezone America/Mexico_City (UTC-6.0)
Stats Elevation 23 ft / 7 m (AMSL)
Location 20.680069° -105.254153°
Runways 1
Magnetic Variation 6.891° E

METAR

MMPR 110147Z 12004KT 15SM BKN250 24/16 A3004 RMK 8/008 AC

Decode

TAF

TAF MMPR 102316Z 1100/1206 22005KT P6SM SCT150 OVC230 TX28/1121Z TN17/1112Z FM110600 24005KT 6SM HZ SCT150 OVC250 FM111800 23010KT P6SM BKN150 OVC250 FM120400 24005KT 6SM HZ BKN150 OVC250

Decode

Destination Runways

ID Width Length Bearing (true) Bearing (mag) Surface Threshold Offset Overrun Length
04 148 ft / 45 m 10,221 ft / 3,116 m 47.05° 40.16° Asphalt 0 ft / 0 m 185 ft / 56 m
22 148 ft / 45 m 10,221 ft / 3,116 m 227.06° 220.17° Asphalt 0 ft / 0 m 185 ft / 56 m